METAR AND TAF INFORMATION
METAR FOR KMKY
ADDS - METARS form results

(1809 UTC 24 September 2020)
Data provider http://aviationweather.gov/metar/data/
 
METAR text: KMKY 241756Z AUTO 17010G15KT 10SM SCT027 BKN032 OVC090 29/25 A2996 RMK AO2 RAB26E42 SLP144 P0000 60000 T02890250 10311 20239 56005 TSNO $
Conditions at: KMKY (MARCO ISLAND , FL, US) observed 1756 UTC 24 September 2020
Temperature: 28.9°C (84°F)
Dewpoint: 25.0°C (77°F) [RH = 80%]
Pressure (altimeter): 29.96 inches Hg (1014.6 mb)
[Sea-level pressure: 1014.4 mb]
Winds: from the S (170 degrees) at 12 MPH (10 knots; 5.1 m/s)
gusting to 17 MPH (15 knots; 7.7 m/s)
Visibility: 10 or more miles (16+ km)
Ceiling: 3200 feet AGL
Clouds: scattered clouds at 2700 feet AGL
broken clouds at 3200 feet AGL
overcast cloud deck at 9000 feet AGL
Weather:
SOME DATA ABOVE MAY BE INACCURATE!!!
"$" is an indication the sensor requires maintenance

METAR text: KMKY 241754Z AUTO 17011G15KT 10SM BKN029 BKN045 OVC090 29/25 A2996 RMK AO2 RAB26E42 P0000 TSNO $
Conditions at: KMKY (MARCO ISLAND , FL, US) observed 1754 UTC 24 September 2020
Temperature: 29.0°C (84°F)
Dewpoint: 25.0°C (77°F) [RH = 79%]
Pressure (altimeter): 29.96 inches Hg (1014.6 mb)
Winds: from the S (170 degrees) at 13 MPH (11 knots; 5.7 m/s)
gusting to 17 MPH (15 knots; 7.7 m/s)
Visibility: 10 or more miles (16+ km)
Ceiling: 2900 feet AGL
Clouds: broken clouds at 2900 feet AGL
broken clouds at 4500 feet AGL
overcast cloud deck at 9000 feet AGL
Weather:
SOME DATA ABOVE MAY BE INACCURATE!!!
"$" is an indication the sensor requires maintenance

METAR text: KMKY 241745Z AUTO 17011G15KT 10SM SCT029 BKN045 OVC090 29/25 A2996 RMK AO2 RAB26E42 P0000 TSNO $
Conditions at: KMKY (MARCO ISLAND , FL, US) observed 1745 UTC 24 September 2020
Temperature: 29.0°C (84°F)
Dewpoint: 25.0°C (77°F) [RH = 79%]
Pressure (altimeter): 29.96 inches Hg (1014.6 mb)
Winds: from the S (170 degrees) at 13 MPH (11 knots; 5.7 m/s)
gusting to 17 MPH (15 knots; 7.7 m/s)
Visibility: 10 or more miles (16+ km)
Ceiling: 4500 feet AGL
Clouds: scattered clouds at 2900 feet AGL
broken clouds at 4500 feet AGL
overcast cloud deck at 9000 feet AGL
Weather:
SOME DATA ABOVE MAY BE INACCURATE!!!
"$" is an indication the sensor requires maintenance

 AIRPORT MAP

 RUNWAY INFORMATION
Runway 17 Runway length 5000 ft Runway width 100 ft
Runway elevation 4 ft Runway displaced threshold 0 ft Runway heading 168
Runway 35 Runway length 5000 ft Runway width 100 ft
Runway elevation 4 ft Runway displaced threshold 0 ft Runway heading 348

 AIRPORT FREQUENCIES
Type A/D Name FORT MYERS Frequency 119.75 MHZ
Type AWOS Name AWOS 3 Frequency 120.075 MHZ
Type CLD Name CLNC DEL Frequency 120.8 MHZ
Type UNIC Name CTAF/UNICO Frequency 122.8 MHZ

 AIRPORT NEAR NAVIGATION AIDS



Powered by Virtual Airlines Manager [v2.6.2]

Impressum | Datenschutz